sensor_id;sensor_type;location;lat;lon;timestamp;pressure;altitude;pressure_sealevel;temperature;humidity
28648;BME280;17137;51.494;-0.262;2023-03-03T00:00:18;50646.20;;;-145.72;69.50
28648;BME280;17137;51.494;-0.262;2023-03-03T00:00:49;50664.81;;;-145.72;69.80
28648;BME280;17137;51.494;-0.262;2023-03-03T00:01:20;50648.78;;;-145.72;69.55
28648;BME280;17137;51.494;-0.262;2023-03-03T00:01:50;50648.91;;;-145.72;69.75
28648;BME280;17137;51.494;-0.262;2023-03-03T00:02:20;50650.14;;;-145.72;69.47
28648;BME280;17137;51.494;-0.262;2023-03-03T00:02:51;50645.70;;;-145.72;69.07
28648;BME280;17137;51.494;-0.262;2023-03-03T00:03:23;50648.78;;;-145.72;69.06
28648;BME280;17137;51.494;-0.262;2023-03-03T00:03:54;50637.20;;;-145.72;69.23
28648;BME280;17137;51.494;-0.262;2023-03-03T00:04:25;50642.62;;;-145.72;68.79
28648;BME280;17137;51.494;-0.262;2023-03-03T00:04:55;50638.80;;;-145.72;68.68
28648;BME280;17137;51.494;-0.262;2023-03-03T00:05:25;50637.94;;;-145.72;68.69
28648;BME280;17137;51.494;-0.262;2023-03-03T00:05:55;50643.73;;;-145.72;68.75
28648;BME280;17137;51.494;-0.262;2023-03-03T00:06:27;50644.22;;;-145.72;69.47
28648;BME280;17137;51.494;-0.262;2023-03-03T00:06:57;50654.58;;;-145.72;69.82
28648;BME280;17137;51.494;-0.262;2023-03-03T00:07:27;50655.19;;;-145.72;70.03
28648;BME280;17137;51.494;-0.262;2023-03-03T00:07:58;50641.39;;;-145.72;69.70
28648;BME280;17137;51.494;-0.262;2023-03-03T00:08:29;50644.22;;;-145.72;69.54
28648;BME280;17137;51.494;-0.262;2023-03-03T00:08:59;50641.88;;;-145.72;69.18
28648;BME280;17137;51.494;-0.262;2023-03-03T00:09:29;50637.32;;;-145.72;69.44
28648;BME280;17137;51.494;-0.262;2023-03-03T00:10:00;50646.93;;;-145.72;69.34
28648;BME280;17137;51.494;-0.262;2023-03-03T00:10:30;50643.24;;;-145.72;69.43
28648;BME280;17137;51.494;-0.262;2023-03-03T00:11:00;50653.72;;;-145.72;70.13
28648;BME280;17137;51.494;-0.262;2023-03-03T00:11:32;50649.40;;;-145.72;69.99
28648;BME280;17137;51.494;-0.262;2023-03-03T00:12:20;50649.15;;;-145.72;70.07
28648;BME280;17137;51.494;-0.262;2023-03-03T00:12:52;50652.73;;;-145.72;70.05
28648;BME280;17137;51.494;-0.262;2023-03-03T00:13:24;50644.47;;;-145.72;70.15
28648;BME280;17137;51.494;-0.262;2023-03-03T00:13:56;50634.48;;;-145.72;69.78
28648;BME280;17137;51.494;-0.262;2023-03-03T00:14:29;50651.74;;;-145.72;69.97
28648;BME280;17137;51.494;-0.262;2023-03-03T00:15:00;50645.21;;;-145.72;70.22
28648;BME280;17137;51.494;-0.262;2023-03-03T00:15:30;50652.61;;;-145.72;70.24
28648;BME280;17137;51.494;-0.262;2023-03-03T00:16:12;50644.72;;;-145.72;70.08
28648;BME280;17137;51.494;-0.262;2023-03-03T00:16:43;50648.04;;;-145.72;69.87
28648;BME280;17137;51.494;-0.262;2023-03-03T00:17:20;50637.81;;;-145.72;69.40
28648;BME280;17137;51.494;-0.262;2023-03-03T00:17:51;50636.83;;;-145.72;69.30
28648;BME280;17137;51.494;-0.262;2023-03-03T00:18:27;50642.62;;;-145.72;69.50
28648;BME280;17137;51.494;-0.262;2023-03-03T00:18:59;50640.77;;;-145.72;69.62
28648;BME280;17137;51.494;-0.262;2023-03-03T00:19:36;50647.80;;;-145.72;68.89
28648;BME280;17137;51.494;-0.262;2023-03-03T00:20:28;50646.20;;;-145.72;68.84
28648;BME280;17137;51.494;-0.262;2023-03-03T00:21:01;50643.73;;;-145.72;68.57
28648;BME280;17137;51.494;-0.262;2023-03-03T00:21:39;50640.28;;;-145.72;68.71
28648;BME280;17137;51.494;-0.262;2023-03-03T00:22:16;50647.18;;;-145.72;68.51
28648;BME280;17137;51.494;-0.262;2023-03-03T00:22:50;50642.00;;;-145.72;68.62
28648;BME280;17137;51.494;-0.262;2023-03-03T00:23:28;50636.09;;;-145.72;68.66
28648;BME280;17137;51.494;-0.262;2023-03-03T00:24:17;50633.62;;;-145.72;68.67
28648;BME280;17137;51.494;-0.262;2023-03-03T00:24:47;50637.20;;;-145.72;68.89
28648;BME280;17137;51.494;-0.262;2023-03-03T00:25:28;50637.32;;;-145.72;68.89
28648;BME280;17137;51.494;-0.262;2023-03-03T00:25:58;50641.14;;;-145.72;69.49
28648;BME280;17137;51.494;-0.262;2023-03-03T00:26:33;50637.20;;;-145.72;69.10
28648;BME280;17137;51.494;-0.262;2023-03-03T00:27:16;50634.98;;;-145.72;68.70
28648;BME280;17137;51.494;-0.262;2023-03-03T00:27:51;50646.44;;;-145.72;68.81
28648;BME280;17137;51.494;-0.262;2023-03-03T00:28:25;50624.99;;;-145.72;68.52
28648;BME280;17137;51.494;-0.262;2023-03-03T00:28:56;50640.40;;;-145.72;68.26
28648;BME280;17137;51.494;-0.262;2023-03-03T00:29:29;50633.87;;;-145.72;67.96
28648;BME280;17137;51.494;-0.262;2023-03-03T00:30:01;50633.00;;;-145.72;68.08
28648;BME280;17137;51.494;-0.262;2023-03-03T00:30:31;50637.07;;;-145.72;67.95
28648;BME280;17137;51.494;-0.262;2023-03-03T00:31:14;50629.55;;;-145.72;67.74
28648;BME280;17137;51.494;-0.262;2023-03-03T00:31:45;50634.85;;;-145.72;68.46
28648;BME280;17137;51.494;-0.262;2023-03-03T00:32:24;50640.77;;;-145.72;69.01
28648;BME280;17137;51.494;-0.262;2023-03-03T00:32:55;50640.65;;;-145.72;69.35
28648;BME280;17137;51.494;-0.262;2023-03-03T00:33:29;50652.48;;;-145.72;69.54
28648;BME280;17137;51.494;-0.262;2023-03-03T00:34:10;50646.32;;;-145.72;69.29
28648;BME280;17137;51.494;-0.262;2023-03-03T00:34:49;50637.20;;;-145.72;68.75
28648;BME280;17137;51.494;-0.262;2023-03-03T00:35:25;50627.70;;;-145.72;68.35
28648;BME280;17137;51.494;-0.262;2023-03-03T00:35:56;50640.89;;;-145.72;68.30
28648;BME280;17137;51.494;-0.262;2023-03-03T00:36:30;50620.68;;;-145.72;68.01
28648;BME280;17137;51.494;-0.262;2023-03-03T00:37:22;50622.16;;;-145.72;67.84
28648;BME280;17137;51.494;-0.262;2023-03-03T00:37:56;50632.51;;;-145.72;68.44
28648;BME280;17137;51.494;-0.262;2023-03-03T00:38:27;50631.77;;;-145.72;68.35
28648;BME280;17137;51.494;-0.262;2023-03-03T00:39:25;50637.69;;;-145.72;68.61
28648;BME280;17137;51.494;-0.262;2023-03-03T00:40:14;50626.22;;;-145.72;68.14
28648;BME280;17137;51.494;-0.262;2023-03-03T00:40:48;50639.29;;;-145.72;68.23
28648;BME280;17137;51.494;-0.262;2023-03-03T00:41:22;50636.33;;;-145.72;68.42
28648;BME280;17137;51.494;-0.262;2023-03-03T00:41:53;50642.50;;;-145.72;68.72
28648;BME280;17137;51.494;-0.262;2023-03-03T00:42:25;50641.26;;;-145.72;68.46
28648;BME280;17137;51.494;-0.262;2023-03-03T00:42:58;50634.73;;;-145.72;68.42
28648;BME280;17137;51.494;-0.262;2023-03-03T00:43:34;50637.81;;;-145.72;68.91
28648;BME280;17137;51.494;-0.262;2023-03-03T00:44:30;50630.66;;;-145.72;68.77
28648;BME280;17137;51.494;-0.262;2023-03-03T00:45:08;50641.63;;;-145.72;69.19
28648;BME280;17137;51.494;-0.262;2023-03-03T00:45:48;50638.18;;;-145.72;69.37
28648;BME280;17137;51.494;-0.262;2023-03-03T00:46:21;50633.13;;;-145.72;69.43
28648;BME280;17137;51.494;-0.262;2023-03-03T00:46:52;50645.83;;;-145.72;69.93
28648;BME280;17137;51.494;-0.262;2023-03-03T00:47:26;50643.61;;;-145.72;69.65
28648;BME280;17137;51.494;-0.262;2023-03-03T00:47:57;50641.88;;;-145.72;69.55
28648;BME280;17137;51.494;-0.262;2023-03-03T00:48:31;50643.73;;;-145.72;69.65
28648;BME280;17137;51.494;-0.262;2023-03-03T00:49:20;50637.81;;;-145.72;69.64
28648;BME280;17137;51.494;-0.262;2023-03-03T00:49:53;50653.10;;;-145.72;70.16
28648;BME280;17137;51.494;-0.262;2023-03-03T00:50:33;50651.99;;;-145.72;70.36
28648;BME280;17137;51.494;-0.262;2023-03-03T00:51:12;50656.67;;;-145.72;70.23
28648;BME280;17137;51.494;-0.262;2023-03-03T00:51:48;50640.15;;;-145.72;70.08
28648;BME280;17137;51.494;-0.262;2023-03-03T00:52:19;50641.02;;;-145.72;69.97
28648;BME280;17137;51.494;-0.262;2023-03-03T00:52:58;50645.95;;;-145.72;69.97
28648;BME280;17137;51.494;-0.262;2023-03-03T00:53:30;50632.39;;;-145.72;69.53
28648;BME280;17137;51.494;-0.262;2023-03-03T00:54:00;50641.39;;;-145.72;69.24
28648;BME280;17137;51.494;-0.262;2023-03-03T00:54:31;50642.62;;;-145.72;68.91
28648;BME280;17137;51.494;-0.262;2023-03-03T00:55:02;50642.25;;;-145.72;68.64
28648;BME280;17137;51.494;-0.262;2023-03-03T00:55:34;50648.78;;;-145.72;68.66
28648;BME280;17137;51.494;-0.262;2023-03-03T00:56:04;50647.43;;;-145.72;68.46
28648;BME280;17137;51.494;-0.262;2023-03-03T00:56:35;50648.29;;;-145.72;68.40
28648;BME280;17137;51.494;-0.262;2023-03-03T00:57:05;50641.26;;;-145.72;68.22
28648;BME280;17137;51.494;-0.262;2023-03-03T00:57:35;50631.77;;;-145.72;67.84
28648;BME280;17137;51.494;-0.262;2023-03-03T00:58:06;50646.81;;;-145.72;68.21
28648;BME280;17137;51.494;-0.262;2023-03-03T00:58:36;50647.80;;;-145.72;68.14
28648;BME280;17137;51.494;-0.262;2023-03-03T00:59:06;50643.98;;;-145.72;68.16
28648;BME280;17137;51.494;-0.262;2023-03-03T00:59:37;50640.77;;;-145.72;68.14
28648;BME280;17137;51.494;-0.262;2023-03-03T01:00:08;50645.70;;;-145.72;68.15
28648;BME280;17137;51.494;-0.262;2023-03-03T01:00:41;50647.30;;;-145.72;68.33
28648;BME280;17137;51.494;-0.262;2023-03-03T01:01:11;50647.55;;;-145.72;68.25
28648;BME280;17137;51.494;-0.262;2023-03-03T01:01:41;50630.79;;;-145.72;68.15
28648;BME280;17137;51.494;-0.262;2023-03-03T01:02:11;50644.84;;;-145.72;68.31
28648;BME280;17137;51.494;-0.262;2023-03-03T01:02:42;50641.76;;;-145.72;68.13
28648;BME280;17137;51.494;-0.262;2023-03-03T01:03:14;50639.29;;;-145.72;67.85
28648;BME280;17137;51.494;-0.262;2023-03-03T01:03:45;50638.80;;;-145.72;68.51
28648;BME280;17137;51.494;-0.262;2023-03-03T01:04:15;50640.89;;;-145.72;68.14
28648;BME280;17137;51.494;-0.262;2023-03-03T01:04:52;50642.50;;;-145.72;67.99
28648;BME280;17137;51.494;-0.262;2023-03-03T01:05:23;50623.76;;;-145.72;67.68
28648;BME280;17137;51.494;-0.262;2023-03-03T01:05:53;50640.03;;;-145.72;67.70
28648;BME280;17137;51.494;-0.262;2023-03-03T01:06:23;50636.46;;;-145.72;67.95
28648;BME280;17137;51.494;-0.262;2023-03-03T01:06:54;50640.40;;;-145.72;67.97
28648;BME280;17137;51.494;-0.262;2023-03-03T01:07:24;50641.63;;;-145.72;67.58
28648;BME280;17137;51.494;-0.262;2023-03-03T01:07:54;50631.65;;;-145.72;67.43
28648;BME280;17137;51.494;-0.262;2023-03-03T01:08:25;50632.51;;;-145.72;67.13
28648;BME280;17137;51.494;-0.262;2023-03-03T01:08:55;50636.83;;;-145.72;66.91
28648;BME280;17137;51.494;-0.262;2023-03-03T01:09:26;50633.00;;;-145.72;66.66
28648;BME280;17137;51.494;-0.262;2023-03-03T01:09:56;50625.73;;;-145.72;66.31
28648;BME280;17137;51.494;-0.262;2023-03-03T01:10:28;50630.42;;;-145.72;66.27
28648;BME280;17137;51.494;-0.262;2023-03-03T01:11:04;50632.88;;;-145.72;66.55
28648;BME280;17137;51.494;-0.262;2023-03-03T01:11:36;50637.07;;;-145.72;67.64
28648;BME280;17137;51.494;-0.262;2023-03-03T01:12:07;50643.85;;;-145.72;67.56
28648;BME280;17137;51.494;-0.262;2023-03-03T01:12:37;50625.61;;;-145.72;67.25
28648;BME280;17137;51.494;-0.262;2023-03-03T01:13:08;50636.83;;;-145.72;67.09
28648;BME280;17137;51.494;-0.262;2023-03-03T01:13:41;50634.85;;;-145.72;66.40
28648;BME280;17137;51.494;-0.262;2023-03-03T01:14:13;50628.07;;;-145.72;65.60
28648;BME280;17137;51.494;-0.262;2023-03-03T01:14:43;50623.51;;;-145.72;65.47
28648;BME280;17137;51.494;-0.262;2023-03-03T01:15:14;50632.14;;;-145.72;65.79
28648;BME280;17137;51.494;-0.262;2023-03-03T01:15:45;50643.36;;;-145.72;66.05
28648;BME280;17137;51.494;-0.262;2023-03-03T01:16:15;50627.21;;;-145.72;65.58
28648;BME280;17137;51.494;-0.262;2023-03-03T01:16:46;50640.89;;;-145.72;65.89
28648;BME280;17137;51.494;-0.262;2023-03-03T01:17:16;50646.20;;;-145.72;65.96
28648;BME280;17137;51.494;-0.262;2023-03-03T01:17:47;50636.09;;;-145.72;65.93
28648;BME280;17137;51.494;-0.262;2023-03-03T01:18:17;50639.78;;;-145.72;66.17
28648;BME280;17137;51.494;-0.262;2023-03-03T01:18:48;50646.81;;;-145.72;66.61
28648;BME280;17137;51.494;-0.262;2023-03-03T01:19:18;50653.59;;;-145.72;66.96
28648;BME280;17137;51.494;-0.262;2023-03-03T01:19:48;50644.22;;;-145.72;67.14
28648;BME280;17137;51.494;-0.262;2023-03-03T01:20:19;50652.98;;;-145.72;66.90
28648;BME280;17137;51.494;-0.262;2023-03-03T01:20:49;50655.44;;;-145.72;66.79
28648;BME280;17137;51.494;-0.262;2023-03-03T01:21:19;50639.17;;;-145.72;66.81
28648;BME280;17137;51.494;-0.262;2023-03-03T01:21:49;50636.95;;;-145.72;66.74
28648;BME280;17137;51.494;-0.262;2023-03-03T01:22:20;50653.10;;;-145.72;66.55
28648;BME280;17137;51.494;-0.262;2023-03-03T01:22:50;50642.00;;;-145.72;66.48
28648;BME280;17137;51.494;-0.262;2023-03-03T01:23:21;50640.03;;;-145.72;66.35
28648;BME280;17137;51.494;-0.262;2023-03-03T01:23:51;50639.66;;;-145.72;66.14
28648;BME280;17137;51.494;-0.262;2023-03-03T01:24:21;50645.09;;;-145.72;65.90
28648;BME280;17137;51.494;-0.262;2023-03-03T01:24:52;50648.78;;;-145.72;66.04
28648;BME280;17137;51.494;-0.262;2023-03-03T01:25:22;50636.83;;;-145.72;66.43
28648;BME280;17137;51.494;-0.262;2023-03-03T01:25:53;50645.70;;;-145.72;66.61
28648;BME280;17137;51.494;-0.262;2023-03-03T01:26:23;50645.09;;;-145.72;66.55
28648;BME280;17137;51.494;-0.262;2023-03-03T01:26:54;50641.76;;;-145.72;66.43
28648;BME280;17137;51.494;-0.262;2023-03-03T01:27:24;50649.89;;;-145.72;66.42
28648;BME280;17137;51.494;-0.262;2023-03-03T01:27:54;50631.40;;;-145.72;66.17
28648;BME280;17137;51.494;-0.262;2023-03-03T01:28:25;50637.07;;;-145.72;65.86
28648;BME280;17137;51.494;-0.262;2023-03-03T01:28:55;50632.39;;;-145.72;65.43
28648;BME280;17137;51.494;-0.262;2023-03-03T01:29:26;50643.61;;;-145.72;66.14
28648;BME280;17137;51.494;-0.262;2023-03-03T01:29:56;50631.03;;;-145.72;66.05
28648;BME280;17137;51.494;-0.262;2023-03-03T01:30:27;50642.25;;;-145.72;66.07
28648;BME280;17137;51.494;-0.262;2023-03-03T01:31:00;50637.69;;;-145.72;65.87
28648;BME280;17137;51.494;-0.262;2023-03-03T01:31:31;50630.66;;;-145.72;65.34
28648;BME280;17137;51.494;-0.262;2023-03-03T01:32:01;50632.26;;;-145.72;65.68
28648;BME280;17137;51.494;-0.262;2023-03-03T01:32:31;50648.41;;;-145.72;66.80
28648;BME280;17137;51.494;-0.262;2023-03-03T01:33:02;50651.37;;;-145.72;66.52
28648;BME280;17137;51.494;-0.262;2023-03-03T01:33:34;50629.43;;;-145.72;66.04
28648;BME280;17137;51.494;-0.262;2023-03-03T01:34:05;50633.37;;;-145.72;66.20
28648;BME280;17137;51.494;-0.262;2023-03-03T01:34:36;50629.80;;;-145.72;66.33
28648;BME280;17137;51.494;-0.262;2023-03-03T01:35:06;50643.61;;;-145.72;66.24
28648;BME280;17137;51.494;-0.262;2023-03-03T01:35:37;50644.84;;;-145.72;66.41
28648;BME280;17137;51.494;-0.262;2023-03-03T01:36:12;50638.18;;;-145.72;66.70
28648;BME280;17137;51.494;-0.262;2023-03-03T01:36:42;50639.54;;;-145.72;66.72
28648;BME280;17137;51.494;-0.262;2023-03-03T01:37:13;50643.24;;;-145.72;66.42
28648;BME280;17137;51.494;-0.262;2023-03-03T01:37:43;50642.99;;;-145.72;66.88
28648;BME280;17137;51.494;-0.262;2023-03-03T01:38:14;50639.66;;;-145.72;66.56
28648;BME280;17137;51.494;-0.262;2023-03-03T01:38:44;50624.87;;;-145.72;66.13
28648;BME280;17137;51.494;-0.262;2023-03-03T01:39:14;50645.83;;;-145.72;66.20
28648;BME280;17137;51.494;-0.262;2023-03-03T01:39:48;50636.09;;;-145.72;65.95
28648;BME280;17137;51.494;-0.262;2023-03-03T01:40:20;50649.40;;;-145.72;66.03
28648;BME280;17137;51.494;-0.262;2023-03-03T01:40:53;50641.39;;;-145.72;65.80
28648;BME280;17137;51.494;-0.262;2023-03-03T01:41:26;50634.98;;;-145.72;65.55
28648;BME280;17137;51.494;-0.262;2023-03-03T01:41:57;50628.07;;;-145.72;65.78
28648;BME280;17137;51.494;-0.262;2023-03-03T01:42:27;50623.14;;;-145.72;65.53
28648;BME280;17137;51.494;-0.262;2023-03-03T01:42:58;50624.37;;;-145.72;65.48
28648;BME280;17137;51.494;-0.262;2023-03-03T01:43:30;50628.57;;;-145.72;65.69
28648;BME280;17137;51.494;-0.262;2023-03-03T01:44:01;50619.32;;;-145.72;65.58
28648;BME280;17137;51.494;-0.262;2023-03-03T01:44:31;50617.35;;;-145.72;65.34
28648;BME280;17137;51.494;-0.262;2023-03-03T01:45:20;50624.62;;;-145.72;65.03
28648;BME280;17137;51.494;-0.262;2023-03-03T01:46:58;50630.42;;;-145.72;64.76
28648;BME280;17137;51.494;-0.262;2023-03-03T01:47:33;50629.18;;;-145.72;64.41
28648;BME280;17137;51.494;-0.262;2023-03-03T01:48:05;50627.70;;;-145.72;64.57
28648;BME280;17137;51.494;-0.262;2023-03-03T01:48:41;50624.37;;;-145.72;64.49
28648;BME280;17137;51.494;-0.262;2023-03-03T01:49:15;50625.48;;;-145.72;64.16
28648;BME280;17137;51.494;-0.262;2023-03-03T01:49:50;50619.44;;;-145.72;64.61
28648;BME280;17137;51.494;-0.262;2023-03-03T01:50:30;50633.50;;;-145.72;65.31
28648;BME280;17137;51.494;-0.262;2023-03-03T01:51:05;50621.54;;;-145.72;64.81
28648;BME280;17137;51.494;-0.262;2023-03-03T01:51:46;50622.77;;;-145.72;64.22
28648;BME280;17137;51.494;-0.262;2023-03-03T01:52:23;50618.95;;;-145.72;63.89
28648;BME280;17137;51.494;-0.262;2023-03-03T01:52:54;50617.59;;;-145.72;63.70
28648;BME280;17137;51.494;-0.262;2023-03-03T01:53:32;50623.51;;;-145.72;63.86
28648;BME280;17137;51.494;-0.262;2023-03-03T01:54:06;50612.91;;;-145.72;63.88
28648;BME280;17137;51.494;-0.262;2023-03-03T01:54:42;50616.12;;;-145.72;63.51
28648;BME280;17137;51.494;-0.262;2023-03-03T01:55:18;50617.59;;;-145.72;63.43
28648;BME280;17137;51.494;-0.262;2023-03-03T01:55:50;50617.35;;;-145.72;63.05
28648;BME280;17137;51.494;-0.262;2023-03-03T01:56:22;50606.13;;;-145.72;62.86
28648;BME280;17137;51.494;-0.262;2023-03-03T01:56:55;50625.73;;;-145.72;63.62
28648;BME280;17137;51.494;-0.262;2023-03-03T01:57:30;50619.20;;;-145.72;64.06
28648;BME280;17137;51.494;-0.262;2023-03-03T01:58:06;50619.44;;;-145.72;64.09
28648;BME280;17137;51.494;-0.262;2023-03-03T01:58:40;50614.14;;;-145.72;63.98
28648;BME280;17137;51.494;-0.262;2023-03-03T01:59:14;50624.99;;;-145.72;63.98
28648;BME280;17137;51.494;-0.262;2023-03-03T01:59:47;50607.98;;;-145.72;63.56
28648;BME280;17137;51.494;-0.262;2023-03-03T02:00:19;50602.68;;;-145.72;63.36
28648;BME280;17137;51.494;-0.262;2023-03-03T02:00:53;50610.32;;;-145.72;63.05
28648;BME280;17137;51.494;-0.262;2023-03-03T02:01:26;50617.84;;;-145.72;63.33
28648;BME280;17137;51.494;-0.262;2023-03-03T02:01:58;50620.43;;;-145.72;63.34
28648;BME280;17137;51.494;-0.262;2023-03-03T02:02:29;50625.98;;;-145.72;64.17
28648;BME280;17137;51.494;-0.262;2023-03-03T02:03:00;50631.65;;;-145.72;64.41
28648;BME280;17137;51.494;-0.262;2023-03-03T02:03:31;50634.98;;;-145.72;64.47
28648;BME280;17137;51.494;-0.262;2023-03-03T02:04:03;50617.22;;;-145.72;64.06
28648;BME280;17137;51.494;-0.262;2023-03-03T02:04:34;50612.54;;;-145.72;63.79
28648;BME280;17137;51.494;-0.262;2023-03-03T02:05:06;50613.40;;;-145.72;63.89
28648;BME280;17137;51.494;-0.262;2023-03-03T02:05:37;50620.31;;;-145.72;63.60
28648;BME280;17137;51.494;-0.262;2023-03-03T02:06:13;50612.29;;;-145.72;63.22
28648;BME280;17137;51.494;-0.262;2023-03-03T02:06:48;50607.12;;;-145.72;63.12
28648;BME280;17137;51.494;-0.262;2023-03-03T02:07:20;50608.96;;;-145.72;62.93
28648;BME280;17137;51.494;-0.262;2023-03-03T02:07:52;50612.42;;;-145.72;62.80
28648;BME280;17137;51.494;-0.262;2023-03-03T02:08:26;50617.47;;;-145.72;62.91
28648;BME280;17137;51.494;-0.262;2023-03-03T02:09:01;50628.69;;;-145.72;62.90
28648;BME280;17137;51.494;-0.262;2023-03-03T02:09:40;50615.01;;;-145.72;62.91
28648;BME280;17137;51.494;-0.262;2023-03-03T02:10:17;50602.55;;;-145.72;62.96
28648;BME280;17137;51.494;-0.262;2023-03-03T02:10:49;50623.64;;;-145.72;62.86
28648;BME280;17137;51.494;-0.262;2023-03-03T02:11:21;50606.87;;;-145.72;62.57
28648;BME280;17137;51.494;-0.262;2023-03-03T02:11:56;50603.91;;;-145.72;62.50
28648;BME280;17137;51.494;-0.262;2023-03-03T02:12:32;50610.81;;;-145.72;62.34
28648;BME280;17137;51.494;-0.262;2023-03-03T02:13:08;50601.69;;;-145.72;62.08
28648;BME280;17137;51.494;-0.262;2023-03-03T02:13:39;50607.49;;;-145.72;61.91
28648;BME280;17137;51.494;-0.262;2023-03-03T02:14:10;50599.10;;;-145.72;62.04
28648;BME280;17137;51.494;-0.262;2023-03-03T02:14:40;50603.91;;;-145.72;62.18
28648;BME280;17137;51.494;-0.262;2023-03-03T02:15:20;50606.62;;;-145.72;62.32
28648;BME280;17137;51.494;-0.262;2023-03-03T02:15:50;50603.17;;;-145.72;61.99
28648;BME280;17137;51.494;-0.262;2023-03-03T02:16:21;50606.99;;;-145.72;61.71
28648;BME280;17137;51.494;-0.262;2023-03-03T02:16:51;50586.40;;;-145.72;61.58
28648;BME280;17137;51.494;-0.262;2023-03-03T02:17:22;50591.95;;;-145.72;61.27
28648;BME280;17137;51.494;-0.262;2023-03-03T02:17:54;50608.35;;;-145.72;61.73
28648;BME280;17137;51.494;-0.262;2023-03-03T02:18:29;50609.09;;;-145.72;61.97
28648;BME280;17137;51.494;-0.262;2023-03-03T02:19:00;50617.84;;;-145.72;62.04
28648;BME280;17137;51.494;-0.262;2023-03-03T02:19:36;50609.70;;;-145.72;61.83
28648;BME280;17137;51.494;-0.262;2023-03-03T02:20:17;50595.03;;;-145.72;61.91
28648;BME280;17137;51.494;-0.262;2023-03-03T02:20:55;50610.07;;;-145.72;62.05
28648;BME280;17137;51.494;-0.262;2023-03-03T02:21:27;50609.33;;;-145.72;61.66
28648;BME280;17137;51.494;-0.262;2023-03-03T02:21:58;50603.79;;;-145.72;61.56
28648;BME280;17137;51.494;-0.262;2023-03-03T02:22:35;50604.03;;;-145.72;61.21
28648;BME280;17137;51.494;-0.262;2023-03-03T02:23:12;50607.61;;;-145.72;61.46
28648;BME280;17137;51.494;-0.262;2023-03-03T02:23:51;50608.60;;;-145.72;61.42
28648;BME280;17137;51.494;-0.262;2023-03-03T02:24:27;50603.17;;;-145.72;61.53
28648;BME280;17137;51.494;-0.262;2023-03-03T02:25:02;50625.24;;;-145.72;61.86
28648;BME280;17137;51.494;-0.262;2023-03-03T02:25:41;50614.64;;;-145.72;61.59
28648;BME280;17137;51.494;-0.262;2023-03-03T02:26:15;50609.95;;;-145.72;61.57
28648;BME280;17137;51.494;-0.262;2023-03-03T02:26:45;50616.48;;;-145.72;61.83
28648;BME280;17137;51.494;-0.262;2023-03-03T02:27:16;50631.03;;;-145.72;62.45
28648;BME280;17137;51.494;-0.262;2023-03-03T02:27:47;50622.16;;;-145.72;62.40
28648;BME280;17137;51.494;-0.262;2023-03-03T02:28:17;50615.50;;;-145.72;62.17
28648;BME280;17137;51.494;-0.262;2023-03-03T02:28:48;50617.47;;;-145.72;62.57
28648;BME280;17137;51.494;-0.262;2023-03-03T02:29:18;50614.27;;;-145.72;62.72
28648;BME280;17137;51.494;-0.262;2023-03-03T02:29:49;50625.24;;;-145.72;62.88
28648;BME280;17137;51.494;-0.262;2023-03-03T02:30:21;50621.91;;;-145.72;63.32
28648;BME280;17137;51.494;-0.262;2023-03-03T02:30:54;50615.50;;;-145.72;63.49
28648;BME280;17137;51.494;-0.262;2023-03-03T02:31:26;50615.87;;;-145.72;63.33
28648;BME280;17137;51.494;-0.262;2023-03-03T02:31:57;50631.03;;;-145.72;63.82
28648;BME280;17137;51.494;-0.262;2023-03-03T02:32:28;50629.92;;;-145.72;63.66
28648;BME280;17137;51.494;-0.262;2023-03-03T02:33:04;50632.63;;;-145.72;63.51
28648;BME280;17137;51.494;-0.262;2023-03-03T02:33:34;50617.35;;;-145.72;63.87
28648;BME280;17137;51.494;-0.262;2023-03-03T02:34:05;50618.21;;;-145.72;63.58
28648;BME280;17137;51.494;-0.262;2023-03-03T02:34:45;50617.96;;;-145.72;63.18
28648;BME280;17137;51.494;-0.262;2023-03-03T02:35:28;50629.80;;;-145.72;63.24
28648;BME280;17137;51.494;-0.262;2023-03-03T02:36:12;50614.51;;;-145.72;62.51
28648;BME280;17137;51.494;-0.262;2023-03-03T02:36:43;50613.28;;;-145.72;62.26
28648;BME280;17137;51.494;-0.262;2023-03-03T02:37:13;50631.65;;;-145.72;63.05
28648;BME280;17137;51.494;-0.262;2023-03-03T02:37:43;50622.03;;;-145.72;63.23
28648;BME280;17137;51.494;-0.262;2023-03-03T02:38:20;50615.13;;;-145.72;62.98
28648;BME280;17137;51.494;-0.262;2023-03-03T02:38:58;50623.39;;;-145.72;62.79
28648;BME280;17137;51.494;-0.262;2023-03-03T02:39:32;50619.94;;;-145.72;62.78
28648;BME280;17137;51.494;-0.262;2023-03-03T02:40:02;50615.75;;;-145.72;63.04
28648;BME280;17137;51.494;-0.262;2023-03-03T02:40:37;50617.96;;;-145.72;62.97
28648;BME280;17137;51.494;-0.262;2023-03-03T02:41:15;50614.27;;;-145.72;62.83
28648;BME280;17137;51.494;-0.262;2023-03-03T02:41:50;50619.20;;;-145.72;62.94
28648;BME280;17137;51.494;-0.262;2023-03-03T02:42:26;50624.74;;;-145.72;63.77
28648;BME280;17137;51.494;-0.262;2023-03-03T02:43:00;50642.00;;;-145.72;64.13
28648;BME280;17137;51.494;-0.262;2023-03-03T02:43:38;50623.88;;;-145.72;64.11
28648;BME280;17137;51.494;-0.262;2023-03-03T02:44:09;50620.68;;;-145.72;64.07
28648;BME280;17137;51.494;-0.262;2023-03-03T02:44:40;50622.53;;;-145.72;63.72
28648;BME280;17137;51.494;-0.262;2023-03-03T02:45:10;50612.54;;;-145.72;63.70
28648;BME280;17137;51.494;-0.262;2023-03-03T02:45:43;50624.62;;;-145.72;63.47
28648;BME280;17137;51.494;-0.262;2023-03-03T02:46:13;50616.73;;;-145.72;63.08
28648;BME280;17137;51.494;-0.262;2023-03-03T02:46:45;50613.65;;;-145.72;63.09
28648;BME280;17137;51.494;-0.262;2023-03-03T02:47:16;50621.17;;;-145.72;62.83
28648;BME280;17137;51.494;-0.262;2023-03-03T02:47:48;50606.62;;;-145.72;63.20
28648;BME280;17137;51.494;-0.262;2023-03-03T02:48:18;50618.09;;;-145.72;63.02
28648;BME280;17137;51.494;-0.262;2023-03-03T02:48:49;50619.57;;;-145.72;62.82
28648;BME280;17137;51.494;-0.262;2023-03-03T02:49:23;50617.96;;;-145.72;62.78
28648;BME280;17137;51.494;-0.262;2023-03-03T02:49:53;50617.35;;;-145.72;62.68
28648;BME280;17137;51.494;-0.262;2023-03-03T02:50:23;50611.68;;;-145.72;62.76